sensor_id;sensor_type;location;lat;lon;timestamp;P1;durP1;ratioP1;P2;durP2;ratioP2
17915;SDS011;9083;49.156;8.982;2023-04-03T00:00:59;9.07;;;4.80;;
17915;SDS011;9083;49.156;8.982;2023-04-03T00:03:25;4.97;;;3.63;;
17915;SDS011;9083;49.156;8.982;2023-04-03T00:05:51;2.63;;;2.43;;
17915;SDS011;9083;49.156;8.982;2023-04-03T00:08:18;3.70;;;2.87;;
17915;SDS011;9083;49.156;8.982;2023-04-03T00:10:44;7.57;;;2.10;;
17915;SDS011;9083;49.156;8.982;2023-04-03T00:13:12;8.10;;;3.50;;
17915;SDS011;9083;49.156;8.982;2023-04-03T00:15:39;24.37;;;7.77;;
17915;SDS011;9083;49.156;8.982;2023-04-03T00:18:06;19.33;;;6.80;;
17915;SDS011;9083;49.156;8.982;2023-04-03T00:20:36;28.73;;;10.63;;
17915;SDS011;9083;49.156;8.982;2023-04-03T00:23:02;35.60;;;10.10;;
17915;SDS011;9083;49.156;8.982;2023-04-03T00:25:29;22.90;;;8.37;;
17915;SDS011;9083;49.156;8.982;2023-04-03T00:27:55;25.90;;;8.57;;
17915;SDS011;9083;49.156;8.982;2023-04-03T00:30:23;42.43;;;10.77;;
17915;SDS011;9083;49.156;8.982;2023-04-03T00:32:50;34.30;;;9.07;;
17915;SDS011;9083;49.156;8.982;2023-04-03T00:35:20;34.70;;;10.70;;
17915;SDS011;9083;49.156;8.982;2023-04-03T00:37:46;11.13;;;5.00;;
17915;SDS011;9083;49.156;8.982;2023-04-03T00:40:14;21.73;;;8.23;;
17915;SDS011;9083;49.156;8.982;2023-04-03T00:42:41;2.90;;;2.70;;
17915;SDS011;9083;49.156;8.982;2023-04-03T00:45:26;4.37;;;2.60;;
17915;SDS011;9083;49.156;8.982;2023-04-03T00:47:54;4.70;;;2.67;;
17915;SDS011;9083;49.156;8.982;2023-04-03T00:50:20;2.90;;;2.57;;
17915;SDS011;9083;49.156;8.982;2023-04-03T00:52:47;1.97;;;1.80;;
17915;SDS011;9083;49.156;8.982;2023-04-03T00:55:14;2.00;;;1.90;;
17915;SDS011;9083;49.156;8.982;2023-04-03T00:57:41;2.00;;;1.90;;
17915;SDS011;9083;49.156;8.982;2023-04-03T01:00:11;2.50;;;2.00;;
17915;SDS011;9083;49.156;8.982;2023-04-03T01:02:40;3.23;;;1.80;;
17915;SDS011;9083;49.156;8.982;2023-04-03T01:05:07;3.47;;;2.10;;
17915;SDS011;9083;49.156;8.982;2023-04-03T01:07:33;2.63;;;2.20;;
17915;SDS011;9083;49.156;8.982;2023-04-03T01:10:03;2.33;;;2.10;;
17915;SDS011;9083;49.156;8.982;2023-04-03T01:12:31;3.43;;;2.03;;
17915;SDS011;9083;49.156;8.982;2023-04-03T01:14:58;3.27;;;2.57;;
17915;SDS011;9083;49.156;8.982;2023-04-03T01:17:29;2.07;;;1.97;;
17915;SDS011;9083;49.156;8.982;2023-04-03T01:20:03;2.80;;;2.07;;
17915;SDS011;9083;49.156;8.982;2023-04-03T01:22:38;2.20;;;2.10;;
17915;SDS011;9083;49.156;8.982;2023-04-03T01:25:07;4.40;;;2.47;;
17915;SDS011;9083;49.156;8.982;2023-04-03T01:27:33;3.23;;;2.20;;
17915;SDS011;9083;49.156;8.982;2023-04-03T01:29:59;4.97;;;2.10;;
17915;SDS011;9083;49.156;8.982;2023-04-03T01:32:27;2.90;;;2.00;;
17915;SDS011;9083;49.156;8.982;2023-04-03T01:34:54;2.93;;;2.40;;
17915;SDS011;9083;49.156;8.982;2023-04-03T01:37:20;2.10;;;2.00;;
17915;SDS011;9083;49.156;8.982;2023-04-03T01:39:46;3.83;;;2.40;;
17915;SDS011;9083;49.156;8.982;2023-04-03T01:42:13;2.40;;;2.30;;
17915;SDS011;9083;49.156;8.982;2023-04-03T01:44:41;2.60;;;2.40;;
17915;SDS011;9083;49.156;8.982;2023-04-03T01:47:07;3.80;;;2.37;;
17915;SDS011;9083;49.156;8.982;2023-04-03T01:49:35;3.17;;;2.43;;
17915;SDS011;9083;49.156;8.982;2023-04-03T01:52:01;3.10;;;2.30;;
17915;SDS011;9083;49.156;8.982;2023-04-03T01:54:28;3.30;;;2.30;;
17915;SDS011;9083;49.156;8.982;2023-04-03T01:56:54;2.30;;;2.20;;
17915;SDS011;9083;49.156;8.982;2023-04-03T01:59:21;3.27;;;2.30;;
17915;SDS011;9083;49.156;8.982;2023-04-03T02:01:47;3.63;;;2.33;;
17915;SDS011;9083;49.156;8.982;2023-04-03T02:04:13;2.50;;;2.40;;
17915;SDS011;9083;49.156;8.982;2023-04-03T02:06:41;2.83;;;2.10;;
17915;SDS011;9083;49.156;8.982;2023-04-03T02:09:07;2.40;;;2.20;;
17915;SDS011;9083;49.156;8.982;2023-04-03T02:11:34;2.17;;;2.07;;
17915;SDS011;9083;49.156;8.982;2023-04-03T02:14:00;2.10;;;2.00;;
17915;SDS011;9083;49.156;8.982;2023-04-03T02:16:27;2.67;;;2.47;;
17915;SDS011;9083;49.156;8.982;2023-04-03T02:18:53;2.50;;;2.10;;
17915;SDS011;9083;49.156;8.982;2023-04-03T02:21:20;2.83;;;2.10;;
17915;SDS011;9083;49.156;8.982;2023-04-03T02:23:48;2.60;;;2.40;;
17915;SDS011;9083;49.156;8.982;2023-04-03T02:26:14;3.43;;;2.33;;
17915;SDS011;9083;49.156;8.982;2023-04-03T02:28:41;2.67;;;2.57;;
17915;SDS011;9083;49.156;8.982;2023-04-03T02:31:08;2.30;;;2.10;;
17915;SDS011;9083;49.156;8.982;2023-04-03T02:33:35;2.17;;;1.90;;
17915;SDS011;9083;49.156;8.982;2023-04-03T02:36:02;3.30;;;2.13;;
17915;SDS011;9083;49.156;8.982;2023-04-03T02:38:28;2.03;;;1.93;;
17915;SDS011;9083;49.156;8.982;2023-04-03T02:41:00;6.67;;;2.53;;
17915;SDS011;9083;49.156;8.982;2023-04-03T02:43:27;2.10;;;1.97;;
17915;SDS011;9083;49.156;8.982;2023-04-03T02:45:53;3.40;;;2.50;;
17915;SDS011;9083;49.156;8.982;2023-04-03T02:48:19;2.70;;;2.50;;
17915;SDS011;9083;49.156;8.982;2023-04-03T02:50:46;2.50;;;2.30;;
17915;SDS011;9083;49.156;8.982;2023-04-03T02:53:12;2.40;;;2.30;;
17915;SDS011;9083;49.156;8.982;2023-04-03T02:55:39;2.40;;;2.30;;
17915;SDS011;9083;49.156;8.982;2023-04-03T02:58:07;2.57;;;2.37;;
17915;SDS011;9083;49.156;8.982;2023-04-03T03:00:33;9.07;;;2.37;;
17915;SDS011;9083;49.156;8.982;2023-04-03T03:03:00;4.47;;;1.93;;
17915;SDS011;9083;49.156;8.982;2023-04-03T03:05:26;2.60;;;2.23;;
17915;SDS011;9083;49.156;8.982;2023-04-03T03:07:53;4.67;;;2.30;;
17915;SDS011;9083;49.156;8.982;2023-04-03T03:10:19;4.07;;;2.27;;
17915;SDS011;9083;49.156;8.982;2023-04-03T03:12:46;3.60;;;2.50;;
17915;SDS011;9083;49.156;8.982;2023-04-03T03:15:14;2.33;;;2.13;;
17915;SDS011;9083;49.156;8.982;2023-04-03T03:17:42;2.50;;;2.33;;
17915;SDS011;9083;49.156;8.982;2023-04-03T03:20:09;3.37;;;2.60;;
17915;SDS011;9083;49.156;8.982;2023-04-03T03:22:36;3.33;;;2.33;;
17915;SDS011;9083;49.156;8.982;2023-04-03T03:25:03;2.50;;;2.40;;
17915;SDS011;9083;49.156;8.982;2023-04-03T03:27:29;2.80;;;2.70;;
17915;SDS011;9083;49.156;8.982;2023-04-03T03:29:56;2.30;;;2.20;;
17915;SDS011;9083;49.156;8.982;2023-04-03T03:32:24;2.47;;;2.27;;
17915;SDS011;9083;49.156;8.982;2023-04-03T03:34:50;3.47;;;2.60;;
17915;SDS011;9083;49.156;8.982;2023-04-03T03:37:16;5.20;;;2.47;;
17915;SDS011;9083;49.156;8.982;2023-04-03T03:39:43;3.10;;;2.90;;
17915;SDS011;9083;49.156;8.982;2023-04-03T03:42:09;2.80;;;2.60;;
17915;SDS011;9083;49.156;8.982;2023-04-03T03:44:36;2.27;;;2.17;;
17915;SDS011;9083;49.156;8.982;2023-04-03T03:47:02;2.17;;;2.07;;
17915;SDS011;9083;49.156;8.982;2023-04-03T03:49:32;2.70;;;2.50;;
17915;SDS011;9083;49.156;8.982;2023-04-03T03:51:58;3.07;;;2.77;;
17915;SDS011;9083;49.156;8.982;2023-04-03T03:54:26;2.50;;;2.40;;
17915;SDS011;9083;49.156;8.982;2023-04-03T03:56:52;3.47;;;2.57;;
17915;SDS011;9083;49.156;8.982;2023-04-03T03:59:19;2.07;;;1.87;;
17915;SDS011;9083;49.156;8.982;2023-04-03T04:01:45;2.57;;;2.37;;
17915;SDS011;9083;49.156;8.982;2023-04-03T04:04:12;3.33;;;2.67;;
17915;SDS011;9083;49.156;8.982;2023-04-03T04:06:39;2.93;;;2.50;;
17915;SDS011;9083;49.156;8.982;2023-04-03T04:09:06;4.60;;;2.40;;
17915;SDS011;9083;49.156;8.982;2023-04-03T04:11:32;3.23;;;2.70;;
17915;SDS011;9083;49.156;8.982;2023-04-03T04:13:59;5.07;;;3.07;;
17915;SDS011;9083;49.156;8.982;2023-04-03T04:16:26;2.83;;;2.53;;
17915;SDS011;9083;49.156;8.982;2023-04-03T04:18:52;2.70;;;2.50;;
17915;SDS011;9083;49.156;8.982;2023-04-03T04:21:18;2.73;;;2.53;;
17915;SDS011;9083;49.156;8.982;2023-04-03T04:23:46;3.73;;;2.40;;
17915;SDS011;9083;49.156;8.982;2023-04-03T04:26:12;3.40;;;2.43;;
17915;SDS011;9083;49.156;8.982;2023-04-03T04:28:39;3.17;;;2.50;;
17915;SDS011;9083;49.156;8.982;2023-04-03T04:31:05;2.33;;;2.13;;
17915;SDS011;9083;49.156;8.982;2023-04-03T04:33:32;2.60;;;2.33;;
17915;SDS011;9083;49.156;8.982;2023-04-03T04:35:58;3.10;;;2.80;;
17915;SDS011;9083;49.156;8.982;2023-04-03T04:38:25;4.57;;;2.40;;
17915;SDS011;9083;49.156;8.982;2023-04-03T04:40:52;2.40;;;2.30;;
17915;SDS011;9083;49.156;8.982;2023-04-03T04:43:19;3.17;;;2.63;;
17915;SDS011;9083;49.156;8.982;2023-04-03T04:45:45;4.07;;;2.70;;
17915;SDS011;9083;49.156;8.982;2023-04-03T04:48:12;2.50;;;2.30;;
17915;SDS011;9083;49.156;8.982;2023-04-03T04:50:38;3.47;;;2.30;;
17915;SDS011;9083;49.156;8.982;2023-04-03T04:53:04;3.70;;;2.30;;
17915;SDS011;9083;49.156;8.982;2023-04-03T04:55:31;2.57;;;2.37;;
17915;SDS011;9083;49.156;8.982;2023-04-03T04:57:59;2.60;;;2.50;;
17915;SDS011;9083;49.156;8.982;2023-04-03T05:00:25;2.50;;;2.30;;
17915;SDS011;9083;49.156;8.982;2023-04-03T05:02:52;2.73;;;2.63;;
17915;SDS011;9083;49.156;8.982;2023-04-03T05:05:18;4.43;;;2.67;;
17915;SDS011;9083;49.156;8.982;2023-04-03T05:07:45;3.37;;;2.27;;
17915;SDS011;9083;49.156;8.982;2023-04-03T05:10:14;4.23;;;2.37;;
17915;SDS011;9083;49.156;8.982;2023-04-03T05:12:40;3.23;;;2.57;;
17915;SDS011;9083;49.156;8.982;2023-04-03T05:15:09;2.43;;;2.20;;
17915;SDS011;9083;49.156;8.982;2023-04-03T05:17:35;2.80;;;2.60;;
17915;SDS011;9083;49.156;8.982;2023-04-03T05:20:02;3.10;;;2.50;;
17915;SDS011;9083;49.156;8.982;2023-04-03T05:22:29;4.70;;;2.50;;
17915;SDS011;9083;49.156;8.982;2023-04-03T05:24:56;3.67;;;2.70;;
17915;SDS011;9083;49.156;8.982;2023-04-03T05:27:22;3.10;;;2.90;;
17915;SDS011;9083;49.156;8.982;2023-04-03T05:29:49;2.83;;;2.63;;
17915;SDS011;9083;49.156;8.982;2023-04-03T05:32:17;6.03;;;2.60;;
17915;SDS011;9083;49.156;8.982;2023-04-03T05:34:43;4.17;;;2.60;;
17915;SDS011;9083;49.156;8.982;2023-04-03T05:37:10;4.00;;;2.70;;
17915;SDS011;9083;49.156;8.982;2023-04-03T05:39:36;2.87;;;2.67;;
17915;SDS011;9083;49.156;8.982;2023-04-03T05:42:03;4.93;;;2.97;;
17915;SDS011;9083;49.156;8.982;2023-04-03T05:44:30;4.50;;;2.67;;
17915;SDS011;9083;49.156;8.982;2023-04-03T05:46:56;5.43;;;3.23;;
17915;SDS011;9083;49.156;8.982;2023-04-03T05:49:24;4.90;;;2.83;;
17915;SDS011;9083;49.156;8.982;2023-04-03T05:51:50;3.53;;;2.90;;
17915;SDS011;9083;49.156;8.982;2023-04-03T05:54:17;2.93;;;2.73;;
17915;SDS011;9083;49.156;8.982;2023-04-03T05:56:45;4.30;;;2.87;;
17915;SDS011;9083;49.156;8.982;2023-04-03T05:59:11;2.90;;;2.57;;
17915;SDS011;9083;49.156;8.982;2023-04-03T06:01:37;3.13;;;2.93;;
17915;SDS011;9083;49.156;8.982;2023-04-03T06:04:04;2.93;;;2.70;;
17915;SDS011;9083;49.156;8.982;2023-04-03T06:06:43;6.07;;;2.50;;
17915;SDS011;9083;49.156;8.982;2023-04-03T06:09:10;3.17;;;2.60;;
17915;SDS011;9083;49.156;8.982;2023-04-03T06:11:37;4.37;;;3.00;;
17915;SDS011;9083;49.156;8.982;2023-04-03T06:14:04;2.53;;;2.43;;
17915;SDS011;9083;49.156;8.982;2023-04-03T06:16:30;2.83;;;2.63;;
17915;SDS011;9083;49.156;8.982;2023-04-03T06:18:57;2.60;;;2.40;;
17915;SDS011;9083;49.156;8.982;2023-04-03T06:21:23;4.20;;;2.60;;
17915;SDS011;9083;49.156;8.982;2023-04-03T06:23:51;5.00;;;3.00;;
17915;SDS011;9083;49.156;8.982;2023-04-03T06:26:17;3.63;;;2.60;;
17915;SDS011;9083;49.156;8.982;2023-04-03T06:28:44;4.80;;;3.00;;
17915;SDS011;9083;49.156;8.982;2023-04-03T06:31:10;6.60;;;2.87;;
17915;SDS011;9083;49.156;8.982;2023-04-03T06:33:37;5.20;;;3.83;;
17915;SDS011;9083;49.156;8.982;2023-04-03T06:36:03;6.80;;;3.17;;
17915;SDS011;9083;49.156;8.982;2023-04-03T06:38:30;6.27;;;2.70;;
17915;SDS011;9083;49.156;8.982;2023-04-03T06:40:58;3.93;;;3.10;;
17915;SDS011;9083;49.156;8.982;2023-04-03T06:43:25;4.07;;;2.67;;
17915;SDS011;9083;49.156;8.982;2023-04-03T06:45:51;3.20;;;3.00;;
17915;SDS011;9083;49.156;8.982;2023-04-03T06:48:18;2.57;;;2.40;;
17915;SDS011;9083;49.156;8.982;2023-04-03T06:50:44;5.57;;;3.10;;
17915;SDS011;9083;49.156;8.982;2023-04-03T06:53:10;3.87;;;3.57;;
17915;SDS011;9083;49.156;8.982;2023-04-03T06:55:37;3.80;;;3.50;;
17915;SDS011;9083;49.156;8.982;2023-04-03T06:58:05;4.97;;;2.73;;
17915;SDS011;9083;49.156;8.982;2023-04-03T07:00:31;3.63;;;3.10;;
17915;SDS011;9083;49.156;8.982;2023-04-03T07:02:57;4.57;;;3.57;;
17915;SDS011;9083;49.156;8.982;2023-04-03T07:05:24;4.40;;;2.90;;
17915;SDS011;9083;49.156;8.982;2023-04-03T07:07:51;6.57;;;3.47;;
17915;SDS011;9083;49.156;8.982;2023-04-03T07:10:17;7.87;;;4.03;;
17915;SDS011;9083;49.156;8.982;2023-04-03T07:12:43;7.13;;;3.63;;
17915;SDS011;9083;49.156;8.982;2023-04-03T07:15:11;5.10;;;3.23;;
17915;SDS011;9083;49.156;8.982;2023-04-03T07:17:39;6.37;;;3.70;;
17915;SDS011;9083;49.156;8.982;2023-04-03T07:20:06;3.77;;;3.47;;
17915;SDS011;9083;49.156;8.982;2023-04-03T07:22:33;3.80;;;3.50;;
17915;SDS011;9083;49.156;8.982;2023-04-03T07:24:59;5.77;;;3.40;;
17915;SDS011;9083;49.156;8.982;2023-04-03T07:27:26;4.37;;;3.20;;
17915;SDS011;9083;49.156;8.982;2023-04-03T07:29:52;4.30;;;4.00;;
17915;SDS011;9083;49.156;8.982;2023-04-03T07:32:22;7.37;;;4.03;;
17915;SDS011;9083;49.156;8.982;2023-04-03T07:34:48;11.37;;;7.63;;
17915;SDS011;9083;49.156;8.982;2023-04-03T07:37:15;16.53;;;8.47;;
17915;SDS011;9083;49.156;8.982;2023-04-03T07:39:43;15.13;;;9.50;;
17915;SDS011;9083;49.156;8.982;2023-04-03T07:42:09;10.80;;;7.40;;
17915;SDS011;9083;49.156;8.982;2023-04-03T07:44:37;9.00;;;5.40;;
17915;SDS011;9083;49.156;8.982;2023-04-03T07:47:03;6.47;;;4.27;;
17915;SDS011;9083;49.156;8.982;2023-04-03T07:49:31;8.40;;;3.80;;
17915;SDS011;9083;49.156;8.982;2023-04-03T07:51:58;5.80;;;3.67;;
17915;SDS011;9083;49.156;8.982;2023-04-03T07:54:24;8.17;;;4.53;;
17915;SDS011;9083;49.156;8.982;2023-04-03T07:56:51;8.23;;;3.80;;
17915;SDS011;9083;49.156;8.982;2023-04-03T07:59:17;6.57;;;3.63;;
17915;SDS011;9083;49.156;8.982;2023-04-03T08:01:44;5.17;;;4.00;;
17915;SDS011;9083;49.156;8.982;2023-04-03T08:04:10;7.43;;;4.20;;
17915;SDS011;9083;49.156;8.982;2023-04-03T08:06:38;9.00;;;4.57;;
17915;SDS011;9083;49.156;8.982;2023-04-03T08:09:05;18.07;;;8.17;;
17915;SDS011;9083;49.156;8.982;2023-04-03T08:11:31;12.33;;;6.60;;
17915;SDS011;9083;49.156;8.982;2023-04-03T08:13:57;27.00;;;14.00;;
17915;SDS011;9083;49.156;8.982;2023-04-03T08:16:24;5.03;;;3.20;;
17915;SDS011;9083;49.156;8.982;2023-04-03T08:18:51;4.03;;;3.03;;
17915;SDS011;9083;49.156;8.982;2023-04-03T08:21:18;6.43;;;3.30;;
17915;SDS011;9083;49.156;8.982;2023-04-03T08:23:47;9.57;;;5.97;;
17915;SDS011;9083;49.156;8.982;2023-04-03T08:26:14;14.60;;;7.30;;
17915;SDS011;9083;49.156;8.982;2023-04-03T08:28:41;7.40;;;4.27;;
17915;SDS011;9083;49.156;8.982;2023-04-03T08:31:08;3.73;;;2.90;;
17915;SDS011;9083;49.156;8.982;2023-04-03T08:33:39;3.30;;;2.90;;
17915;SDS011;9083;49.156;8.982;2023-04-03T08:36:06;11.80;;;5.33;;
17915;SDS011;9083;49.156;8.982;2023-04-03T08:38:33;5.90;;;3.43;;
17915;SDS011;9083;49.156;8.982;2023-04-03T08:41:07;4.37;;;2.70;;
17915;SDS011;9083;49.156;8.982;2023-04-03T08:43:39;5.33;;;3.47;;
17915;SDS011;9083;49.156;8.982;2023-04-03T08:46:10;4.30;;;3.27;;
17915;SDS011;9083;49.156;8.982;2023-04-03T08:48:38;4.57;;;2.40;;
17915;SDS011;9083;49.156;8.982;2023-04-03T08:51:09;9.90;;;4.53;;
17915;SDS011;9083;49.156;8.982;2023-04-03T08:53:40;2.13;;;1.93;;
17915;SDS011;9083;49.156;8.982;2023-04-03T08:56:09;1.83;;;1.73;;
17915;SDS011;9083;49.156;8.982;2023-04-03T08:58:39;4.40;;;2.37;;
17915;SDS011;9083;49.156;8.982;2023-04-03T09:01:10;2.40;;;2.20;;
17915;SDS011;9083;49.156;8.982;2023-04-03T09:03:41;3.30;;;1.93;;
17915;SDS011;9083;49.156;8.982;2023-04-03T09:06:10;5.13;;;2.00;;
17915;SDS011;9083;49.156;8.982;2023-04-03T09:08:40;2.80;;;2.13;;
17915;SDS011;9083;49.156;8.982;2023-04-03T09:11:15;4.03;;;1.70;;
17915;SDS011;9083;49.156;8.982;2023-04-03T09:13:44;5.27;;;2.20;;
17915;SDS011;9083;49.156;8.982;2023-04-03T09:16:16;3.30;;;2.37;;
17915;SDS011;9083;49.156;8.982;2023-04-03T09:18:47;4.67;;;2.10;;
17915;SDS011;9083;49.156;8.982;2023-04-03T09:21:16;1.90;;;1.77;;
17915;SDS011;9083;49.156;8.982;2023-04-03T09:23:46;2.20;;;1.93;;
17915;SDS011;9083;49.156;8.982;2023-04-03T09:26:16;3.47;;;2.07;;
17915;SDS011;9083;49.156;8.982;2023-04-03T09:28:44;4.37;;;2.13;;
17915;SDS011;9083;49.156;8.982;2023-04-03T09:31:14;1.97;;;1.87;;
17915;SDS011;9083;49.156;8.982;2023-04-03T09:33:42;3.90;;;2.00;;
17915;SDS011;9083;49.156;8.982;2023-04-03T09:36:09;4.47;;;1.90;;
17915;SDS011;9083;49.156;8.982;2023-04-03T09:38:36;6.43;;;2.07;;
17915;SDS011;9083;49.156;8.982;2023-04-03T09:41:04;2.10;;;1.60;;
17915;SDS011;9083;49.156;8.982;2023-04-03T09:43:32;8.30;;;2.00;;
17915;SDS011;9083;49.156;8.982;2023-04-03T09:48:40;4.80;;;3.63;;
17915;SDS011;9083;49.156;8.982;2023-04-03T09:51:16;4.00;;;3.30;;
17915;SDS011;9083;49.156;8.982;2023-04-03T09:53:43;3.80;;;2.10;;
17915;SDS011;9083;49.156;8.982;2023-04-03T09:56:18;6.77;;;2.83;;
17915;SDS011;9083;49.156;8.982;2023-04-03T09:58:48;4.33;;;2.13;;
17915;SDS011;9083;49.156;8.982;2023-04-03T10:01:22;2.67;;;2.20;;
17915;SDS011;9083;49.156;8.982;2023-04-03T10:04:02;1.80;;;1.70;;
17915;SDS011;9083;49.156;8.982;2023-04-03T10:06:29;3.67;;;2.70;;
17915;SDS011;9083;49.156;8.982;2023-04-03T10:08:58;10.57;;;6.17;;
17915;SDS011;9083;49.156;8.982;2023-04-03T10:11:24;23.97;;;10.80;;
17915;SDS011;9083;49.156;8.982;2023-04-03T10:13:54;22.97;;;11.27;;
17915;SDS011;9083;49.156;8.982;2023-04-03T10:16:23;8.70;;;5.43;;
17915;SDS011;9083;49.156;8.982;2023-04-03T10:18:55;3.17;;;2.27;;
17915;SDS011;9083;49.156;8.982;2023-04-03T10:21:27;5.13;;;3.77;;
17915;SDS011;9083;49.156;8.982;2023-04-03T10:23:57;6.67;;;4.00;;
17915;SDS011;9083;49.156;8.982;2023-04-03T10:26:29;4.20;;;2.67;;
17915;SDS011;9083;49.156;8.982;2023-04-03T10:29:01;7.50;;;4.10;;
17915;SDS011;9083;49.156;8.982;2023-04-03T10:31:29;2.10;;;2.00;;
17915;SDS011;9083;49.156;8.982;2023-04-03T10:34:01;7.50;;;4.73;;
17915;SDS011;9083;49.156;8.982;2023-04-03T10:36:33;6.37;;;2.47;;
17915;SDS011;9083;49.156;8.982;2023-04-03T10:39:02;4.87;;;2.07;;
17915;SDS011;9083;49.156;8.982;2023-04-03T10:41:35;3.77;;;2.87;;
17915;SDS011;9083;49.156;8.982;2023-04-03T10:44:08;3.97;;;2.97;;
17915;SDS011;9083;49.156;8.982;2023-04-03T10:46:37;5.17;;;3.30;;
17915;SDS011;9083;49.156;8.982;2023-04-03T10:49:08;2.87;;;2.40;;
17915;SDS011;9083;49.156;8.982;2023-04-03T10:51:37;2.97;;;2.30;;
17915;SDS011;9083;49.156;8.982;2023-04-03T10:54:08;5.77;;;3.20;;
17915;SDS011;9083;49.156;8.982;2023-04-03T10:56:37;5.63;;;2.33;;
17915;SDS011;9083;49.156;8.982;2023-04-03T10:59:12;3.20;;;2.30;;
17915;SDS011;9083;49.156;8.982;2023-04-03T11:01:41;4.17;;;3.07;;
17915;SDS011;9083;49.156;8.982;2023-04-03T11:04:08;2.20;;;1.97;;
17915;SDS011;9083;49.156;8.982;2023-04-03T11:06:37;2.40;;;2.20;;
17915;SDS011;9083;49.156;8.982;2023-04-03T11:09:07;5.80;;;3.57;;
17915;SDS011;9083;49.156;8.982;2023-04-03T11:11:37;4.47;;;2.60;;
17915;SDS011;9083;49.156;8.982;2023-04-03T11:14:05;3.83;;;3.10;;
17915;SDS011;9083;49.156;8.982;2023-04-03T11:16:37;8.23;;;4.43;;
17915;SDS011;9083;49.156;8.982;2023-04-03T11:19:10;5.03;;;3.73;;
17915;SDS011;9083;49.156;8.982;2023-04-03T11:21:39;3.80;;;2.17;;
17915;SDS011;9083;49.156;8.982;2023-04-03T11:24:09;5.83;;;2.77;;
17915;SDS011;9083;49.156;8.982;2023-04-03T11:26:38;2.53;;;2.20;;
17915;SDS011;9083;49.156;8.982;2023-04-03T11:29:08;2.63;;;2.43;;
17915;SDS011;9083;49.156;8.982;2023-04-03T11:31:41;6.57;;;2.50;;
17915;SDS011;9083;49.156;8.982;2023-04-03T11:34:14;2.27;;;2.17;;
17915;SDS011;9083;49.156;8.982;2023-04-03T11:36:46;7.77;;;2.23;;
17915;SDS011;9083;49.156;8.982;2023-04-03T11:39:16;2.53;;;2.30;;
17915;SDS011;9083;49.156;8.982;2023-04-03T11:41:45;8.77;;;2.10;;
17915;SDS011;9083;49.156;8.982;2023-04-03T11:44:25;3.77;;;1.90;;
17915;SDS011;9083;49.156;8.982;2023-04-03T11:46:56;4.13;;;1.60;;
17915;SDS011;9083;49.156;8.982;2023-04-03T11:52:09;1.83;;;1.70;;
17915;SDS011;9083;49.156;8.982;2023-04-03T11:54:46;4.90;;;2.27;;
17915;SDS011;9083;49.156;8.982;2023-04-03T11:57:23;3.63;;;1.73;;
17915;SDS011;9083;49.156;8.982;2023-04-03T12:02:55;2.53;;;1.70;;
17915;SDS011;9083;49.156;8.982;2023-04-03T12:05:25;3.97;;;1.80;;
17915;SDS011;9083;49.156;8.982;2023-04-03T12:10:33;2.43;;;1.73;;
17915;SDS011;9083;49.156;8.982;2023-04-03T12:13:00;4.87;;;2.60;;
17915;SDS011;9083;49.156;8.982;2023-04-03T12:21:14;3.80;;;2.10;;
17915;SDS011;9083;49.156;8.982;2023-04-03T12:24:00;5.93;;;1.73;;
17915;SDS011;9083;49.156;8.982;2023-04-03T12:26:28;6.00;;;2.00;;
17915;SDS011;9083;49.156;8.982;2023-04-03T12:28:56;3.67;;;2.13;;
17915;SDS011;9083;49.156;8.982;2023-04-03T12:31:23;2.73;;;2.00;;
17915;SDS011;9083;49.156;8.982;2023-04-03T12:34:00;2.20;;;2.00;;
17915;SDS011;9083;49.156;8.982;2023-04-03T12:36:30;3.17;;;2.20;;
17915;SDS011;9083;49.156;8.982;2023-04-03T12:39:05;1.80;;;1.70;;
17915;SDS011;9083;49.156;8.982;2023-04-03T12:41:38;3.87;;;1.73;;
17915;SDS011;9083;49.156;8.982;2023-04-03T12:44:11;2.93;;;2.00;;
17915;SDS011;9083;49.156;8.982;2023-04-03T12:46:42;3.47;;;2.00;;
17915;SDS011;9083;49.156;8.982;2023-04-03T12:49:14;1.93;;;1.63;;
17915;SDS011;9083;49.156;8.982;2023-04-03T12:51:45;4.77;;;1.90;;
17915;SDS011;9083;49.156;8.982;2023-04-03T12:54:13;4.43;;;2.37;;
17915;SDS011;9083;49.156;8.982;2023-04-03T12:56:41;2.93;;;1.80;;
17915;SDS011;9083;49.156;8.982;2023-04-03T12:59:15;3.97;;;2.53;;
17915;SDS011;9083;49.156;8.982;2023-04-03T13:01:42;1.97;;;1.87;;
17915;SDS011;9083;49.156;8.982;2023-04-03T13:04:09;4.07;;;2.33;;
17915;SDS011;9083;49.156;8.982;2023-04-03T13:06:37;2.10;;;2.00;;
17915;SDS011;9083;49.156;8.982;2023-04-03T13:09:06;1.77;;;1.67;;
17915;SDS011;9083;49.156;8.982;2023-04-03T13:11:41;3.00;;;1.80;;
17915;SDS011;9083;49.156;8.982;2023-04-03T13:14:14;3.53;;;2.20;;
17915;SDS011;9083;49.156;8.982;2023-04-03T13:16:41;2.87;;;1.60;;
17915;SDS011;9083;49.156;8.982;2023-04-03T13:19:14;4.87;;;2.30;;
17915;SDS011;9083;49.156;8.982;2023-04-03T13:21:41;2.40;;;1.93;;
17915;SDS011;9083;49.156;8.982;2023-04-03T13:24:10;5.47;;;2.03;;
17915;SDS011;9083;49.156;8.982;2023-04-03T13:26:37;7.33;;;3.80;;
17915;SDS011;9083;49.156;8.982;2023-04-03T13:29:05;10.80;;;5.50;;
17915;SDS011;9083;49.156;8.982;2023-04-03T13:31:32;13.10;;;4.27;;
17915;SDS011;9083;49.156;8.982;2023-04-03T13:34:02;12.33;;;4.80;;
17915;SDS011;9083;49.156;8.982;2023-04-03T13:36:29;13.60;;;8.47;;
17915;SDS011;9083;49.156;8.982;2023-04-03T13:39:01;3.77;;;3.07;;
17915;SDS011;9083;49.156;8.982;2023-04-03T13:41:30;5.17;;;3.83;;
17915;SDS011;9083;49.156;8.982;2023-04-03T13:46:38;7.27;;;2.40;;
17915;SDS011;9083;49.156;8.982;2023-04-03T13:49:16;5.97;;;4.07;;
17915;SDS011;9083;49.156;8.982;2023-04-03T13:51:43;7.73;;;4.73;;
17915;SDS011;9083;49.156;8.982;2023-04-03T13:54:15;4.20;;;2.30;;
17915;SDS011;9083;49.156;8.982;2023-04-03T13:56:44;2.80;;;1.90;;
17915;SDS011;9083;49.156;8.982;2023-04-03T13:59:21;2.63;;;1.97;;
17915;SDS011;9083;49.156;8.982;2023-04-03T14:01:48;2.90;;;2.13;;
17915;SDS011;9083;49.156;8.982;2023-04-03T14:04:17;3.10;;;2.40;;
17915;SDS011;9083;49.156;8.982;2023-04-03T14:06:44;2.97;;;2.63;;
17915;SDS011;9083;49.156;8.982;2023-04-03T14:09:10;2.10;;;2.00;;
17915;SDS011;9083;49.156;8.982;2023-04-03T14:11:37;3.80;;;2.87;;
17915;SDS011;9083;49.156;8.982;2023-04-03T14:14:09;3.00;;;2.60;;
17915;SDS011;9083;49.156;8.982;2023-04-03T14:16:38;2.57;;;2.40;;
17915;SDS011;9083;49.156;8.982;2023-04-03T14:19:05;3.37;;;2.30;;
17915;SDS011;9083;49.156;8.982;2023-04-03T14:21:32;4.50;;;1.93;;
17915;SDS011;9083;49.156;8.982;2023-04-03T14:23:59;4.57;;;2.30;;
17915;SDS011;9083;49.156;8.982;2023-04-03T14:26:25;3.03;;;2.73;;
17915;SDS011;9083;49.156;8.982;2023-04-03T14:28:53;2.50;;;2.30;;
17915;SDS011;9083;49.156;8.982;2023-04-03T14:31:21;2.90;;;2.40;;
17915;SDS011;9083;49.156;8.982;2023-04-03T14:33:48;2.10;;;1.90;;
17915;SDS011;9083;49.156;8.982;2023-04-03T14:36:15;3.23;;;1.90;;
17915;SDS011;9083;49.156;8.982;2023-04-03T14:38:42;3.00;;;2.40;;
17915;SDS011;9083;49.156;8.982;2023-04-03T14:41:10;3.30;;;2.20;;
17915;SDS011;9083;49.156;8.982;2023-04-03T14:43:36;2.07;;;1.97;;
17915;SDS011;9083;49.156;8.982;2023-04-03T14:46:03;2.10;;;2.00;;
17915;SDS011;9083;49.156;8.982;2023-04-03T14:48:31;4.63;;;2.37;;
17915;SDS011;9083;49.156;8.982;2023-04-03T14:50:58;4.17;;;2.47;;
17915;SDS011;9083;49.156;8.982;2023-04-03T14:53:24;3.27;;;2.50;;
17915;SDS011;9083;49.156;8.982;2023-04-03T14:55:51;4.63;;;2.33;;
17915;SDS011;9083;49.156;8.982;2023-04-03T14:58:18;4.60;;;2.10;;
17915;SDS011;9083;49.156;8.982;2023-04-03T15:00:45;2.47;;;2.10;;
17915;SDS011;9083;49.156;8.982;2023-04-03T15:03:12;1.97;;;1.87;;
17915;SDS011;9083;49.156;8.982;2023-04-03T15:05:40;1.80;;;1.70;;
17915;SDS011;9083;49.156;8.982;2023-04-03T15:08:08;2.47;;;2.27;;
17915;SDS011;9083;49.156;8.982;2023-04-03T15:10:35;2.90;;;2.10;;
17915;SDS011;9083;49.156;8.982;2023-04-03T15:13:02;2.27;;;2.17;;
17915;SDS011;9083;49.156;8.982;2023-04-03T15:15:29;3.10;;;2.17;;
17915;SDS011;9083;49.156;8.982;2023-04-03T15:17:55;2.93;;;2.03;;
17915;SDS011;9083;49.156;8.982;2023-04-03T15:20:23;7.77;;;2.70;;
17915;SDS011;9083;49.156;8.982;2023-04-03T15:22:51;4.77;;;2.67;;
17915;SDS011;9083;49.156;8.982;2023-04-03T15:25:18;3.10;;;2.20;;